sensor_id;sensor_type;location;lat;lon;timestamp;pressure;altitude;pressure_sealevel;temperature;humidity
80892;BME280;70343;51.530;5.050;2023-06-14T00:01:24;101390.59;;;22.31;34.85
80892;BME280;70343;51.530;5.050;2023-06-14T00:03:49;101386.38;;;22.35;34.60
80892;BME280;70343;51.530;5.050;2023-06-14T00:06:15;101388.13;;;22.25;34.90
80892;BME280;70343;51.530;5.050;2023-06-14T00:08:40;101393.44;;;22.25;34.39
80892;BME280;70343;51.530;5.050;2023-06-14T00:11:07;101387.00;;;22.16;34.79
80892;BME280;70343;51.530;5.050;2023-06-14T00:13:33;101382.16;;;22.12;34.82
80892;BME280;70343;51.530;5.050;2023-06-14T00:15:58;101391.59;;;21.98;34.70
80892;BME280;70343;51.530;5.050;2023-06-14T00:18:24;101382.06;;;22.02;34.69
80892;BME280;70343;51.530;5.050;2023-06-14T00:20:50;101388.63;;;21.95;34.98
80892;BME280;70343;51.530;5.050;2023-06-14T00:23:17;101393.50;;;22.03;34.78
80892;BME280;70343;51.530;5.050;2023-06-14T00:25:42;101390.47;;;21.94;34.64
80892;BME280;70343;51.530;5.050;2023-06-14T00:28:08;101398.22;;;21.96;34.91
80892;BME280;70343;51.530;5.050;2023-06-14T00:30:34;101390.88;;;21.81;34.58
80892;BME280;70343;51.530;5.050;2023-06-14T00:33:01;101390.16;;;21.86;34.58
80892;BME280;70343;51.530;5.050;2023-06-14T00:35:27;101395.84;;;21.78;34.81
80892;BME280;70343;51.530;5.050;2023-06-14T00:37:56;101392.09;;;21.74;34.48
80892;BME280;70343;51.530;5.050;2023-06-14T00:40:22;101389.63;;;21.67;34.05
80892;BME280;70343;51.530;5.050;2023-06-14T00:42:47;101385.13;;;21.68;34.08
80892;BME280;70343;51.530;5.050;2023-06-14T00:45:13;101387.78;;;21.68;34.25
80892;BME280;70343;51.530;5.050;2023-06-14T00:47:41;101391.50;;;21.67;33.49
80892;BME280;70343;51.530;5.050;2023-06-14T00:50:09;101395.91;;;21.61;34.09
80892;BME280;70343;51.530;5.050;2023-06-14T00:52:35;101394.81;;;21.57;33.53
80892;BME280;70343;51.530;5.050;2023-06-14T00:55:01;101391.50;;;21.45;34.33
80892;BME280;70343;51.530;5.050;2023-06-14T00:57:28;101401.34;;;21.50;33.53
80892;BME280;70343;51.530;5.050;2023-06-14T00:59:57;101400.81;;;21.48;33.31
80892;BME280;70343;51.530;5.050;2023-06-14T01:02:23;101393.28;;;21.40;33.46
80892;BME280;70343;51.530;5.050;2023-06-14T01:04:49;101394.19;;;21.28;34.32
80892;BME280;70343;51.530;5.050;2023-06-14T01:13:27;101392.50;;;21.22;33.22
80892;BME280;70343;51.530;5.050;2023-06-14T01:15:54;101381.75;;;21.12;33.64
80892;BME280;70343;51.530;5.050;2023-06-14T01:18:21;101392.56;;;21.06;33.77
80892;BME280;70343;51.530;5.050;2023-06-14T01:20:49;101388.69;;;20.97;33.63
80892;BME280;70343;51.530;5.050;2023-06-14T01:23:20;101394.16;;;20.90;34.21
80892;BME280;70343;51.530;5.050;2023-06-14T01:25:47;101389.34;;;20.87;34.64
80892;BME280;70343;51.530;5.050;2023-06-14T01:28:15;101387.41;;;20.99;33.90
80892;BME280;70343;51.530;5.050;2023-06-14T01:30:44;101386.22;;;20.90;34.45
80892;BME280;70343;51.530;5.050;2023-06-14T01:33:12;101390.97;;;20.88;34.18
80892;BME280;70343;51.530;5.050;2023-06-14T01:35:40;101392.53;;;20.89;33.67
80892;BME280;70343;51.530;5.050;2023-06-14T01:38:06;101394.97;;;20.74;34.59
80892;BME280;70343;51.530;5.050;2023-06-14T01:40:34;101390.25;;;20.76;34.17
80892;BME280;70343;51.530;5.050;2023-06-14T01:43:01;101396.72;;;20.85;33.72
80892;BME280;70343;51.530;5.050;2023-06-14T01:45:29;101388.81;;;20.69;34.58
80892;BME280;70343;51.530;5.050;2023-06-14T01:47:56;101386.78;;;20.59;34.52
80892;BME280;70343;51.530;5.050;2023-06-14T01:50:22;101392.56;;;20.56;34.36
80892;BME280;70343;51.530;5.050;2023-06-14T01:52:47;101392.88;;;20.43;35.09
80892;BME280;70343;51.530;5.050;2023-06-14T01:55:13;101386.00;;;20.42;35.67
80892;BME280;70343;51.530;5.050;2023-06-14T01:57:38;101385.50;;;20.45;34.79
80892;BME280;70343;51.530;5.050;2023-06-14T02:00:04;101390.00;;;20.45;34.84
80892;BME280;70343;51.530;5.050;2023-06-14T02:02:38;101383.66;;;20.46;34.81
80892;BME280;70343;51.530;5.050;2023-06-14T02:05:05;101390.38;;;20.36;35.09
80892;BME280;70343;51.530;5.050;2023-06-14T02:07:30;101388.38;;;20.27;35.83
80892;BME280;70343;51.530;5.050;2023-06-14T02:09:56;101400.00;;;20.26;34.94
80892;BME280;70343;51.530;5.050;2023-06-14T02:12:22;101393.19;;;20.30;35.88
80892;BME280;70343;51.530;5.050;2023-06-14T02:14:47;101391.97;;;20.21;36.07
80892;BME280;70343;51.530;5.050;2023-06-14T02:17:14;101394.75;;;20.14;35.89
80892;BME280;70343;51.530;5.050;2023-06-14T02:19:40;101389.78;;;20.18;35.80
80892;BME280;70343;51.530;5.050;2023-06-14T02:22:06;101385.25;;;20.02;36.52
80892;BME280;70343;51.530;5.050;2023-06-14T02:24:33;101395.13;;;20.06;35.49
80892;BME280;70343;51.530;5.050;2023-06-14T02:26:59;101395.75;;;19.97;35.96
80892;BME280;70343;51.530;5.050;2023-06-14T02:29:25;101400.03;;;19.86;36.65
80892;BME280;70343;51.530;5.050;2023-06-14T02:31:51;101402.56;;;19.93;36.62
80892;BME280;70343;51.530;5.050;2023-06-14T02:34:19;101405.91;;;19.88;36.12
80892;BME280;70343;51.530;5.050;2023-06-14T02:36:47;101400.72;;;19.82;36.42
80892;BME280;70343;51.530;5.050;2023-06-14T02:39:13;101406.22;;;19.92;36.25
80892;BME280;70343;51.530;5.050;2023-06-14T02:41:38;101399.97;;;19.81;36.98
80892;BME280;70343;51.530;5.050;2023-06-14T02:44:04;101407.91;;;19.81;37.06
80892;BME280;70343;51.530;5.050;2023-06-14T02:46:30;101404.72;;;19.68;36.60
80892;BME280;70343;51.530;5.050;2023-06-14T02:48:55;101409.53;;;19.71;37.44
80892;BME280;70343;51.530;5.050;2023-06-14T02:51:21;101404.97;;;19.54;37.02
80892;BME280;70343;51.530;5.050;2023-06-14T02:53:46;101409.09;;;19.50;37.59
80892;BME280;70343;51.530;5.050;2023-06-14T02:56:12;101403.03;;;19.50;37.21
80892;BME280;70343;51.530;5.050;2023-06-14T02:58:38;101401.56;;;19.42;37.54
80892;BME280;70343;51.530;5.050;2023-06-14T03:01:05;101411.66;;;19.45;38.08
80892;BME280;70343;51.530;5.050;2023-06-14T03:03:33;101404.06;;;19.37;37.76
80892;BME280;70343;51.530;5.050;2023-06-14T03:05:59;101410.88;;;19.33;38.43
80892;BME280;70343;51.530;5.050;2023-06-14T03:08:31;101398.34;;;19.40;38.03
80892;BME280;70343;51.530;5.050;2023-06-14T03:11:06;101411.91;;;19.32;38.24
80892;BME280;70343;51.530;5.050;2023-06-14T03:13:34;101417.63;;;19.29;38.11
80892;BME280;70343;51.530;5.050;2023-06-14T03:16:01;101414.56;;;19.09;38.74
80892;BME280;70343;51.530;5.050;2023-06-14T03:18:29;101413.25;;;19.23;38.54
80892;BME280;70343;51.530;5.050;2023-06-14T03:20:56;101417.28;;;19.26;38.13
80892;BME280;70343;51.530;5.050;2023-06-14T03:23:24;101419.03;;;19.20;38.88
80892;BME280;70343;51.530;5.050;2023-06-14T03:25:51;101417.63;;;19.18;38.36
80892;BME280;70343;51.530;5.050;2023-06-14T03:28:17;101415.56;;;19.20;38.25
80892;BME280;70343;51.530;5.050;2023-06-14T03:30:42;101414.41;;;19.27;38.03
80892;BME280;70343;51.530;5.050;2023-06-14T03:33:08;101417.28;;;19.26;38.13
80892;BME280;70343;51.530;5.050;2023-06-14T03:35:37;101415.81;;;19.18;38.91
80892;BME280;70343;51.530;5.050;2023-06-14T03:38:03;101420.63;;;19.21;38.87
80892;BME280;70343;51.530;5.050;2023-06-14T03:40:29;101425.78;;;19.28;38.42
80892;BME280;70343;51.530;5.050;2023-06-14T03:43:00;101422.81;;;19.24;38.81
80892;BME280;70343;51.530;5.050;2023-06-14T03:45:27;101419.47;;;19.17;38.64
80892;BME280;70343;51.530;5.050;2023-06-14T03:47:52;101436.38;;;19.16;38.51
80892;BME280;70343;51.530;5.050;2023-06-14T03:50:18;101434.41;;;19.12;39.05
80892;BME280;70343;51.530;5.050;2023-06-14T03:52:44;101438.53;;;19.19;38.69
80892;BME280;70343;51.530;5.050;2023-06-14T03:55:11;101442.91;;;19.25;38.45
80892;BME280;70343;51.530;5.050;2023-06-14T03:57:39;101443.63;;;19.09;39.63
80892;BME280;70343;51.530;5.050;2023-06-14T04:00:09;101442.25;;;19.18;38.72
80892;BME280;70343;51.530;5.050;2023-06-14T04:02:39;101446.84;;;19.23;39.05
80892;BME280;70343;51.530;5.050;2023-06-14T04:05:05;101448.44;;;19.12;39.57
80892;BME280;70343;51.530;5.050;2023-06-14T04:07:35;101441.19;;;19.08;39.82
80892;BME280;70343;51.530;5.050;2023-06-14T04:10:11;101449.94;;;19.20;39.56
80892;BME280;70343;51.530;5.050;2023-06-14T04:12:37;101446.59;;;19.24;39.40
80892;BME280;70343;51.530;5.050;2023-06-14T04:15:03;101453.03;;;19.28;39.05
80892;BME280;70343;51.530;5.050;2023-06-14T04:17:31;101455.13;;;19.26;39.45
80892;BME280;70343;51.530;5.050;2023-06-14T04:19:59;101457.63;;;18.98;40.20
80892;BME280;70343;51.530;5.050;2023-06-14T04:22:26;101451.19;;;19.06;39.43
80892;BME280;70343;51.530;5.050;2023-06-14T04:24:55;101450.50;;;19.10;39.38
80892;BME280;70343;51.530;5.050;2023-06-14T04:27:26;101454.31;;;19.14;39.67
80892;BME280;70343;51.530;5.050;2023-06-14T04:29:52;101454.53;;;19.13;39.64
80892;BME280;70343;51.530;5.050;2023-06-14T04:32:24;101455.91;;;19.15;39.83
80892;BME280;70343;51.530;5.050;2023-06-14T04:34:55;101457.75;;;19.15;40.09
80892;BME280;70343;51.530;5.050;2023-06-14T04:37:22;101458.53;;;19.15;40.03
80892;BME280;70343;51.530;5.050;2023-06-14T04:39:48;101468.69;;;19.18;39.94
80892;BME280;70343;51.530;5.050;2023-06-14T04:42:16;101456.13;;;19.14;40.29
80892;BME280;70343;51.530;5.050;2023-06-14T04:44:43;101459.25;;;19.22;40.06
80892;BME280;70343;51.530;5.050;2023-06-14T04:47:10;101466.28;;;19.17;40.11
80892;BME280;70343;51.530;5.050;2023-06-14T04:49:38;101469.03;;;19.22;40.31
80892;BME280;70343;51.530;5.050;2023-06-14T04:52:05;101470.41;;;19.24;40.26
80892;BME280;70343;51.530;5.050;2023-06-14T04:54:34;101469.84;;;19.22;40.03
80892;BME280;70343;51.530;5.050;2023-06-14T04:57:04;101467.63;;;19.19;40.17
80892;BME280;70343;51.530;5.050;2023-06-14T04:59:31;101463.50;;;19.12;40.19
80892;BME280;70343;51.530;5.050;2023-06-14T05:01:59;101470.50;;;19.18;40.62
80892;BME280;70343;51.530;5.050;2023-06-14T05:04:25;101475.38;;;19.32;40.54
80892;BME280;70343;51.530;5.050;2023-06-14T05:06:52;101472.00;;;19.14;40.60
80892;BME280;70343;51.530;5.050;2023-06-14T05:09:20;101473.28;;;19.11;40.63
80892;BME280;70343;51.530;5.050;2023-06-14T05:11:46;101473.16;;;19.18;41.20
80892;BME280;70343;51.530;5.050;2023-06-14T05:14:13;101480.88;;;19.31;40.10
80892;BME280;70343;51.530;5.050;2023-06-14T05:16:40;101478.91;;;19.26;41.27
80892;BME280;70343;51.530;5.050;2023-06-14T05:19:06;101483.97;;;19.16;41.26
80892;BME280;70343;51.530;5.050;2023-06-14T05:21:32;101479.84;;;19.32;40.68
80892;BME280;70343;51.530;5.050;2023-06-14T05:24:00;101478.44;;;19.76;40.26
80892;BME280;70343;51.530;5.050;2023-06-14T05:26:26;101483.00;;;21.43;36.04
80892;BME280;70343;51.530;5.050;2023-06-14T05:28:58;101489.34;;;22.76;33.59
80892;BME280;70343;51.530;5.050;2023-06-14T05:31:25;101478.50;;;23.20;31.94
80892;BME280;70343;51.530;5.050;2023-06-14T05:33:52;101477.47;;;21.66;35.41
80892;BME280;70343;51.530;5.050;2023-06-14T05:36:17;101486.09;;;21.01;37.24
80892;BME280;70343;51.530;5.050;2023-06-14T05:38:43;101488.25;;;20.71;38.61
80892;BME280;70343;51.530;5.050;2023-06-14T05:41:08;101488.94;;;20.67;38.49
80892;BME280;70343;51.530;5.050;2023-06-14T05:43:34;101484.22;;;22.43;34.23
80892;BME280;70343;51.530;5.050;2023-06-14T05:46:00;101483.09;;;23.76;32.01
80892;BME280;70343;51.530;5.050;2023-06-14T05:48:25;101490.28;;;24.67;29.83
80892;BME280;70343;51.530;5.050;2023-06-14T05:50:50;101496.09;;;24.34;31.10
80892;BME280;70343;51.530;5.050;2023-06-14T05:53:16;101499.91;;;25.14;30.15
80892;BME280;70343;51.530;5.050;2023-06-14T05:55:42;101492.88;;;25.68;27.81
80892;BME280;70343;51.530;5.050;2023-06-14T05:58:07;101493.16;;;25.67;28.97
80892;BME280;70343;51.530;5.050;2023-06-14T06:00:33;101503.94;;;26.00;28.01
80892;BME280;70343;51.530;5.050;2023-06-14T06:02:58;101507.31;;;26.65;27.32
80892;BME280;70343;51.530;5.050;2023-06-14T06:05:24;101504.28;;;26.37;27.37
80892;BME280;70343;51.530;5.050;2023-06-14T06:07:50;101506.97;;;26.42;28.16
80892;BME280;70343;51.530;5.050;2023-06-14T06:10:16;101506.22;;;26.71;27.64
80892;BME280;70343;51.530;5.050;2023-06-14T06:12:42;101506.25;;;26.66;27.51
80892;BME280;70343;51.530;5.050;2023-06-14T06:15:08;101510.44;;;26.82;27.17
80892;BME280;70343;51.530;5.050;2023-06-14T06:17:37;101516.56;;;27.16;26.95
80892;BME280;70343;51.530;5.050;2023-06-14T06:20:03;101508.22;;;27.70;25.70
80892;BME280;70343;51.530;5.050;2023-06-14T06:22:31;101508.22;;;27.70;25.95
80892;BME280;70343;51.530;5.050;2023-06-14T06:24:56;101521.00;;;27.25;26.50
80892;BME280;70343;51.530;5.050;2023-06-14T06:27:21;101530.03;;;27.63;26.61
80892;BME280;70343;51.530;5.050;2023-06-14T06:29:47;101532.38;;;27.46;26.82
80892;BME280;70343;51.530;5.050;2023-06-14T06:32:14;101534.28;;;27.88;26.19
80892;BME280;70343;51.530;5.050;2023-06-14T06:34:40;101533.72;;;28.14;25.35
80892;BME280;70343;51.530;5.050;2023-06-14T06:37:05;101532.63;;;28.53;24.87
80892;BME280;70343;51.530;5.050;2023-06-14T06:39:31;101530.50;;;28.50;24.92
80892;BME280;70343;51.530;5.050;2023-06-14T06:41:57;101540.78;;;28.05;25.89
80892;BME280;70343;51.530;5.050;2023-06-14T06:44:31;101549.19;;;27.75;25.98
80892;BME280;70343;51.530;5.050;2023-06-14T06:46:57;101537.16;;;27.96;25.53
80892;BME280;70343;51.530;5.050;2023-06-14T06:49:23;101540.31;;;28.22;25.42
80892;BME280;70343;51.530;5.050;2023-06-14T06:52:02;101538.97;;;28.01;25.08
80892;BME280;70343;51.530;5.050;2023-06-14T06:54:28;101549.41;;;28.63;25.29
80892;BME280;70343;51.530;5.050;2023-06-14T06:56:53;101551.91;;;28.17;25.82
80892;BME280;70343;51.530;5.050;2023-06-14T06:59:19;101555.34;;;28.42;24.81
80892;BME280;70343;51.530;5.050;2023-06-14T07:01:44;101557.50;;;28.40;24.77
80892;BME280;70343;51.530;5.050;2023-06-14T07:04:10;101543.34;;;28.53;24.87
80892;BME280;70343;51.530;5.050;2023-06-14T07:06:35;101554.59;;;28.17;25.19
80892;BME280;70343;51.530;5.050;2023-06-14T07:09:01;101559.56;;;28.05;25.37
80892;BME280;70343;51.530;5.050;2023-06-14T07:11:27;101560.69;;;28.23;26.46
80892;BME280;70343;51.530;5.050;2023-06-14T07:13:53;101559.84;;;27.80;25.98
80892;BME280;70343;51.530;5.050;2023-06-14T07:16:18;101566.09;;;28.60;25.97
80892;BME280;70343;51.530;5.050;2023-06-14T07:18:44;101566.06;;;27.99;26.07
80892;BME280;70343;51.530;5.050;2023-06-14T07:21:09;101572.97;;;28.66;24.41
80892;BME280;70343;51.530;5.050;2023-06-14T07:23:35;101574.91;;;28.00;25.52
80892;BME280;70343;51.530;5.050;2023-06-14T07:26:01;101572.06;;;28.52;25.16
80892;BME280;70343;51.530;5.050;2023-06-14T07:28:26;101579.19;;;28.43;24.47
80892;BME280;70343;51.530;5.050;2023-06-14T07:30:52;101571.53;;;28.55;24.93
80892;BME280;70343;51.530;5.050;2023-06-14T07:33:17;101572.50;;;28.41;24.61
80892;BME280;70343;51.530;5.050;2023-06-14T07:35:43;101579.69;;;28.03;25.68
80892;BME280;70343;51.530;5.050;2023-06-14T07:38:08;101574.88;;;28.24;25.80
80892;BME280;70343;51.530;5.050;2023-06-14T07:40:34;101585.41;;;29.13;24.61
80892;BME280;70343;51.530;5.050;2023-06-14T07:43:00;101586.28;;;28.34;25.32
80892;BME280;70343;51.530;5.050;2023-06-14T07:45:26;101580.00;;;28.44;25.54
80892;BME280;70343;51.530;5.050;2023-06-14T07:47:52;101598.47;;;28.03;25.73
80892;BME280;70343;51.530;5.050;2023-06-14T07:50:17;101596.41;;;28.18;24.44
80892;BME280;70343;51.530;5.050;2023-06-14T07:52:43;101585.53;;;28.10;25.10
80892;BME280;70343;51.530;5.050;2023-06-14T07:55:09;101597.28;;;27.33;26.00
80892;BME280;70343;51.530;5.050;2023-06-14T07:57:34;101588.78;;;27.21;26.35
80892;BME280;70343;51.530;5.050;2023-06-14T08:00:00;101599.81;;;26.81;27.17
80892;BME280;70343;51.530;5.050;2023-06-14T08:02:26;101602.09;;;26.54;27.51
80892;BME280;70343;51.530;5.050;2023-06-14T08:04:51;101601.66;;;26.31;28.08
80892;BME280;70343;51.530;5.050;2023-06-14T08:07:18;101603.47;;;26.46;27.46
80892;BME280;70343;51.530;5.050;2023-06-14T08:09:43;101607.59;;;26.23;28.27
80892;BME280;70343;51.530;5.050;2023-06-14T08:12:09;101604.66;;;26.20;28.79
80892;BME280;70343;51.530;5.050;2023-06-14T08:14:39;101598.56;;;25.99;28.48
80892;BME280;70343;51.530;5.050;2023-06-14T08:17:04;101598.00;;;26.02;28.72
80892;BME280;70343;51.530;5.050;2023-06-14T08:19:30;101598.56;;;25.94;27.94
80892;BME280;70343;51.530;5.050;2023-06-14T08:21:56;101590.31;;;26.06;28.69
80892;BME280;70343;51.530;5.050;2023-06-14T08:24:22;101596.09;;;26.23;28.75
80892;BME280;70343;51.530;5.050;2023-06-14T08:26:55;101592.69;;;25.92;28.84
80892;BME280;70343;51.530;5.050;2023-06-14T08:29:22;101595.09;;;25.99;28.54
80892;BME280;70343;51.530;5.050;2023-06-14T08:31:47;101591.09;;;26.01;28.31
80892;BME280;70343;51.530;5.050;2023-06-14T08:34:13;101594.25;;;26.18;29.01
80892;BME280;70343;51.530;5.050;2023-06-14T08:36:38;101601.50;;;26.08;28.79
80892;BME280;70343;51.530;5.050;2023-06-14T08:39:04;101585.50;;;25.98;29.58
80892;BME280;70343;51.530;5.050;2023-06-14T08:41:29;101603.88;;;26.14;28.76
80892;BME280;70343;51.530;5.050;2023-06-14T08:43:56;101596.69;;;26.15;28.81
80892;BME280;70343;51.530;5.050;2023-06-14T08:46:25;101599.53;;;26.33;28.96
80892;BME280;70343;51.530;5.050;2023-06-14T08:48:55;101611.28;;;26.37;28.27
80892;BME280;70343;51.530;5.050;2023-06-14T08:51:22;101601.72;;;26.26;27.64
80892;BME280;70343;51.530;5.050;2023-06-14T08:53:52;101599.56;;;26.23;27.71
80892;BME280;70343;51.530;5.050;2023-06-14T08:56:18;101599.59;;;26.18;27.83
80892;BME280;70343;51.530;5.050;2023-06-14T08:58:46;101597.41;;;26.25;28.27
80892;BME280;70343;51.530;5.050;2023-06-14T09:01:13;101600.84;;;26.36;27.51
80892;BME280;70343;51.530;5.050;2023-06-14T09:03:42;101594.25;;;26.18;27.57
80892;BME280;70343;51.530;5.050;2023-06-14T09:06:08;101601.47;;;26.23;27.92
80892;BME280;70343;51.530;5.050;2023-06-14T09:08:43;101601.22;;;26.19;28.47
80892;BME280;70343;51.530;5.050;2023-06-14T09:11:14;101606.78;;;26.28;27.82
80892;BME280;70343;51.530;5.050;2023-06-14T09:13:41;101609.13;;;26.39;27.20
80892;BME280;70343;51.530;5.050;2023-06-14T09:16:07;101598.81;;;26.67;26.65
80892;BME280;70343;51.530;5.050;2023-06-14T09:18:41;101614.59;;;26.73;27.61
80892;BME280;70343;51.530;5.050;2023-06-14T09:21:10;101604.78;;;26.54;26.44
80892;BME280;70343;51.530;5.050;2023-06-14T09:23:40;101613.31;;;26.56;26.73
80892;BME280;70343;51.530;5.050;2023-06-14T09:26:17;101602.28;;;26.67;27.51
80892;BME280;70343;51.530;5.050;2023-06-14T09:28:44;101611.75;;;26.55;27.07
80892;BME280;70343;51.530;5.050;2023-06-14T09:31:11;101619.72;;;26.60;26.80
80892;BME280;70343;51.530;5.050;2023-06-14T09:33:37;101609.69;;;26.36;26.35
80892;BME280;70343;51.530;5.050;2023-06-14T09:36:04;101609.53;;;26.72;26.62
80892;BME280;70343;51.530;5.050;2023-06-14T09:38:30;101617.72;;;26.85;26.34
80892;BME280;70343;51.530;5.050;2023-06-14T09:40:58;101618.06;;;26.74;25.34
80892;BME280;70343;51.530;5.050;2023-06-14T09:43:24;101622.88;;;26.67;26.18
80892;BME280;70343;51.530;5.050;2023-06-14T09:45:53;101619.13;;;26.78;25.78
80892;BME280;70343;51.530;5.050;2023-06-14T09:48:20;101618.31;;;26.77;26.41
80892;BME280;70343;51.530;5.050;2023-06-14T09:50:46;101615.25;;;26.94;25.38
80892;BME280;70343;51.530;5.050;2023-06-14T09:53:13;101618.94;;;27.03;24.46
80892;BME280;70343;51.530;5.050;2023-06-14T09:55:41;101616.28;;;27.03;24.49
80892;BME280;70343;51.530;5.050;2023-06-14T09:58:07;101610.69;;;26.94;24.77
80892;BME280;70343;51.530;5.050;2023-06-14T10:00:34;101612.22;;;27.05;24.03
80892;BME280;70343;51.530;5.050;2023-06-14T10:03:05;101613.34;;;26.99;24.06
80892;BME280;70343;51.530;5.050;2023-06-14T10:05:32;101620.16;;;27.20;23.77
80892;BME280;70343;51.530;5.050;2023-06-14T10:08:05;101604.78;;;27.31;23.36
80892;BME280;70343;51.530;5.050;2023-06-14T10:10:33;101616.03;;;27.33;22.83
80892;BME280;70343;51.530;5.050;2023-06-14T10:12:58;101611.34;;;27.49;22.46
80892;BME280;70343;51.530;5.050;2023-06-14T10:15:37;101612.59;;;27.61;22.63
80892;BME280;70343;51.530;5.050;2023-06-14T10:18:31;101609.75;;;27.48;22.48
80892;BME280;70343;51.530;5.050;2023-06-14T10:23:30;101609.03;;;27.37;22.45
80892;BME280;70343;51.530;5.050;2023-06-14T10:25:59;101614.00;;;27.20;21.55
80892;BME280;70343;51.530;5.050;2023-06-14T10:28:25;101608.97;;;27.47;21.92
80892;BME280;70343;51.530;5.050;2023-06-14T10:31:11;101609.41;;;27.54;20.98
80892;BME280;70343;51.530;5.050;2023-06-14T10:33:58;101615.72;;;27.68;19.52
80892;BME280;70343;51.530;5.050;2023-06-14T10:36:31;101622.25;;;27.57;20.78
80892;BME280;70343;51.530;5.050;2023-06-14T10:39:09;101619.13;;;27.50;20.60
80892;BME280;70343;51.530;5.050;2023-06-14T10:41:37;101616.25;;;27.42;20.85
80892;BME280;70343;51.530;5.050;2023-06-14T10:46:38;101622.19;;;27.62;21.04
80892;BME280;70343;51.530;5.050;2023-06-14T10:49:04;101620.03;;;27.64;21.02
80892;BME280;70343;51.530;5.050;2023-06-14T10:51:38;101622.59;;;27.79;21.21
80892;BME280;70343;51.530;5.050;2023-06-14T10:54:14;101617.97;;;27.56;21.59
80892;BME280;70343;51.530;5.050;2023-06-14T10:56:46;101609.94;;;27.56;21.58
80892;BME280;70343;51.530;5.050;2023-06-14T10:59:16;101610.88;;;27.99;21.82
80892;BME280;70343;51.530;5.050;2023-06-14T11:04:50;101610.84;;;28.23;20.95
80892;BME280;70343;51.530;5.050;2023-06-14T11:07:53;101613.19;;;28.05;20.70
80892;BME280;70343;51.530;5.050;2023-06-14T11:10:39;101613.97;;;27.82;21.23
80892;BME280;70343;51.530;5.050;2023-06-14T11:13:06;101615.84;;;27.82;20.74
80892;BME280;70343;51.530;5.050;2023-06-14T11:15:33;101614.41;;;27.89;21.17
80892;BME280;70343;51.530;5.050;2023-06-14T11:18:06;101616.94;;;27.81;21.00
80892;BME280;70343;51.530;5.050;2023-06-14T11:20:33;101623.56;;;27.88;22.09
80892;BME280;70343;51.530;5.050;2023-06-14T11:23:00;101609.47;;;28.01;21.01
80892;BME280;70343;51.530;5.050;2023-06-14T11:25:26;101608.47;;;27.97;21.81
80892;BME280;70343;51.530;5.050;2023-06-14T11:27:54;101597.16;;;28.24;20.95
80892;BME280;70343;51.530;5.050;2023-06-14T11:30:19;101598.53;;;27.98;20.97
80892;BME280;70343;51.530;5.050;2023-06-14T11:32:49;101609.47;;;28.01;20.74
80892;BME280;70343;51.530;5.050;2023-06-14T11:35:16;101595.84;;;28.22;21.33
80892;BME280;70343;51.530;5.050;2023-06-14T11:37:42;101595.94;;;28.35;21.02
80892;BME280;70343;51.530;5.050;2023-06-14T11:40:11;101602.94;;;28.31;22.12
80892;BME280;70343;51.530;5.050;2023-06-14T11:42:38;101593.84;;;28.51;21.03
80892;BME280;70343;51.530;5.050;2023-06-14T11:45:07;101591.88;;;28.38;21.20
80892;BME280;70343;51.530;5.050;2023-06-14T11:47:38;101592.47;;;28.53;20.70
80892;BME280;70343;51.530;5.050;2023-06-14T11:50:05;101584.72;;;28.70;21.40
80892;BME280;70343;51.530;5.050;2023-06-14T11:52:31;101587.81;;;28.96;20.78
80892;BME280;70343;51.530;5.050;2023-06-14T11:54:57;101602.72;;;28.70;21.21
80892;BME280;70343;51.530;5.050;2023-06-14T11:57:24;101593.72;;;28.61;20.62
80892;BME280;70343;51.530;5.050;2023-06-14T11:59:49;101583.50;;;28.63;20.47
80892;BME280;70343;51.530;5.050;2023-06-14T12:02:16;101590.72;;;28.44;20.49
80892;BME280;70343;51.530;5.050;2023-06-14T12:04:47;101596.63;;;28.64;20.93
80892;BME280;70343;51.530;5.050;2023-06-14T12:07:17;101597.97;;;28.99;19.85
80892;BME280;70343;51.530;5.050;2023-06-14T12:12:23;101599.19;;;28.32;20.46
80892;BME280;70343;51.530;5.050;2023-06-14T12:14:51;101601.66;;;28.47;19.29
80892;BME280;70343;51.530;5.050;2023-06-14T12:17:18;101591.09;;;28.56;19.89
80892;BME280;70343;51.530;5.050;2023-06-14T12:19:45;101590.94;;;28.47;20.08
80892;BME280;70343;51.530;5.050;2023-06-14T12:22:12;101585.28;;;28.49;21.27
80892;BME280;70343;51.530;5.050;2023-06-14T12:24:38;101601.84;;;28.56;20.53
80892;BME280;70343;51.530;5.050;2023-06-14T12:27:05;101589.25;;;28.33;22.02
80892;BME280;70343;51.530;5.050;2023-06-14T12:29:31;101582.16;;;28.42;22.87
80892;BME280;70343;51.530;5.050;2023-06-14T12:31:57;101592.63;;;28.62;21.97
80892;BME280;70343;51.530;5.050;2023-06-14T12:34:23;101576.94;;;28.32;22.26
80892;BME280;70343;51.530;5.050;2023-06-14T12:36:52;101583.50;;;28.63;22.36
80892;BME280;70343;51.530;5.050;2023-06-14T12:39:18;101583.47;;;29.00;21.36
80892;BME280;70343;51.530;5.050;2023-06-14T12:41:44;101585.03;;;29.01;21.94
80892;BME280;70343;51.530;5.050;2023-06-14T12:44:13;101590.16;;;28.84;21.78
80892;BME280;70343;51.530;5.050;2023-06-14T12:46:39;101597.22;;;28.61;22.08
80892;BME280;70343;51.530;5.050;2023-06-14T12:49:07;101591.88;;;28.38;22.35
80892;BME280;70343;51.530;5.050;2023-06-14T12:51:33;101581.75;;;28.90;22.43
80892;BME280;70343;51.530;5.050;2023-06-14T12:53:58;101588.09;;;29.13;22.33
80892;BME280;70343;51.530;5.050;2023-06-14T12:56:24;101601.53;;;29.13;22.00
80892;BME280;70343;51.530;5.050;2023-06-14T12:58:49;101597.72;;;28.82;21.53
80892;BME280;70343;51.530;5.050;2023-06-14T13:01:15;101599.38;;;28.78;20.11
80892;BME280;70343;51.530;5.050;2023-06-14T13:03:40;101599.38;;;28.78;20.83
80892;BME280;70343;51.530;5.050;2023-06-14T13:06:06;101602.28;;;28.81;20.87
80892;BME280;70343;51.530;5.050;2023-06-14T13:08:31;101591.97;;;28.88;20.93